sensor_id;sensor_type;location;lat;lon;timestamp;P1;durP1;ratioP1;P2;durP2;ratioP2
48951;SDS011;34758;42.148;24.744;2023-02-11T00:01:58;36.38;;;16.80;;
48951;SDS011;34758;42.148;24.744;2023-02-11T00:04:26;39.00;;;17.63;;
48951;SDS011;34758;42.148;24.744;2023-02-11T00:06:57;39.05;;;18.83;;
48951;SDS011;34758;42.148;24.744;2023-02-11T00:09:26;43.67;;;20.92;;
48951;SDS011;34758;42.148;24.744;2023-02-11T00:11:54;46.25;;;18.70;;
48951;SDS011;34758;42.148;24.744;2023-02-11T00:14:21;41.85;;;20.77;;
48951;SDS011;34758;42.148;24.744;2023-02-11T00:16:49;44.03;;;20.80;;
48951;SDS011;34758;42.148;24.744;2023-02-11T00:19:16;41.08;;;20.38;;
48951;SDS011;34758;42.148;24.744;2023-02-11T00:21:45;38.33;;;21.35;;
48951;SDS011;34758;42.148;24.744;2023-02-11T00:24:18;41.33;;;20.73;;
48951;SDS011;34758;42.148;24.744;2023-02-11T00:26:44;43.00;;;20.80;;
48951;SDS011;34758;42.148;24.744;2023-02-11T00:29:11;39.70;;;20.17;;
48951;SDS011;34758;42.148;24.744;2023-02-11T00:31:43;43.13;;;21.38;;
48951;SDS011;34758;42.148;24.744;2023-02-11T00:34:10;45.22;;;19.50;;
48951;SDS011;34758;42.148;24.744;2023-02-11T00:36:41;39.58;;;18.90;;
48951;SDS011;34758;42.148;24.744;2023-02-11T00:39:07;40.17;;;18.75;;
48951;SDS011;34758;42.148;24.744;2023-02-11T00:41:39;36.20;;;18.00;;
48951;SDS011;34758;42.148;24.744;2023-02-11T00:44:07;38.22;;;18.52;;
48951;SDS011;34758;42.148;24.744;2023-02-11T00:46:34;38.38;;;19.15;;
48951;SDS011;34758;42.148;24.744;2023-02-11T00:49:02;36.40;;;17.45;;
48951;SDS011;34758;42.148;24.744;2023-02-11T00:51:30;40.05;;;18.88;;
48951;SDS011;34758;42.148;24.744;2023-02-11T00:53:57;35.63;;;17.05;;
48951;SDS011;34758;42.148;24.744;2023-02-11T00:56:24;35.10;;;17.92;;
48951;SDS011;34758;42.148;24.744;2023-02-11T00:58:56;41.00;;;19.23;;
48951;SDS011;34758;42.148;24.744;2023-02-11T01:01:23;40.03;;;19.00;;
48951;SDS011;34758;42.148;24.744;2023-02-11T01:03:52;37.58;;;18.70;;
48951;SDS011;34758;42.148;24.744;2023-02-11T01:06:21;39.92;;;19.08;;
48951;SDS011;34758;42.148;24.744;2023-02-11T01:08:49;40.58;;;18.30;;
48951;SDS011;34758;42.148;24.744;2023-02-11T01:11:18;36.70;;;18.67;;
48951;SDS011;34758;42.148;24.744;2023-02-11T01:13:48;33.33;;;17.05;;
48951;SDS011;34758;42.148;24.744;2023-02-11T01:16:18;37.25;;;18.05;;
48951;SDS011;34758;42.148;24.744;2023-02-11T01:18:47;36.42;;;18.75;;
48951;SDS011;34758;42.148;24.744;2023-02-11T01:21:15;37.53;;;18.13;;
48951;SDS011;34758;42.148;24.744;2023-02-11T01:23:42;35.97;;;18.60;;
48951;SDS011;34758;42.148;24.744;2023-02-11T01:26:09;40.15;;;18.17;;
48951;SDS011;34758;42.148;24.744;2023-02-11T01:28:36;34.67;;;17.98;;
48951;SDS011;34758;42.148;24.744;2023-02-11T01:31:04;41.88;;;19.08;;
48951;SDS011;34758;42.148;24.744;2023-02-11T01:33:33;39.25;;;18.50;;
48951;SDS011;34758;42.148;24.744;2023-02-11T01:36:02;34.72;;;18.17;;
48951;SDS011;34758;42.148;24.744;2023-02-11T01:38:32;40.28;;;18.92;;
48951;SDS011;34758;42.148;24.744;2023-02-11T01:41:00;36.30;;;18.48;;
48951;SDS011;34758;42.148;24.744;2023-02-11T01:43:31;35.42;;;16.52;;
48951;SDS011;34758;42.148;24.744;2023-02-11T01:46:05;38.03;;;18.77;;
48951;SDS011;34758;42.148;24.744;2023-02-11T01:48:42;39.83;;;20.00;;
48951;SDS011;34758;42.148;24.744;2023-02-11T01:51:11;34.67;;;18.38;;
48951;SDS011;34758;42.148;24.744;2023-02-11T01:53:39;38.80;;;19.20;;
48951;SDS011;34758;42.148;24.744;2023-02-11T01:56:25;34.72;;;18.58;;
48951;SDS011;34758;42.148;24.744;2023-02-11T01:59:18;31.48;;;14.57;;
48951;SDS011;34758;42.148;24.744;2023-02-11T02:01:48;39.00;;;18.45;;
48951;SDS011;34758;42.148;24.744;2023-02-11T02:04:21;35.45;;;18.25;;
48951;SDS011;34758;42.148;24.744;2023-02-11T02:06:52;31.80;;;16.85;;
48951;SDS011;34758;42.148;24.744;2023-02-11T02:09:22;27.92;;;14.75;;
48951;SDS011;34758;42.148;24.744;2023-02-11T02:11:51;36.47;;;17.88;;
48951;SDS011;34758;42.148;24.744;2023-02-11T02:14:19;36.50;;;18.73;;
48951;SDS011;34758;42.148;24.744;2023-02-11T02:16:46;34.45;;;17.58;;
48951;SDS011;34758;42.148;24.744;2023-02-11T02:22:24;29.50;;;15.75;;
48951;SDS011;34758;42.148;24.744;2023-02-11T02:27:54;29.95;;;15.45;;
48951;SDS011;34758;42.148;24.744;2023-02-11T02:33:42;34.05;;;16.85;;
48951;SDS011;34758;42.148;24.744;2023-02-11T02:36:17;30.80;;;17.00;;
48951;SDS011;34758;42.148;24.744;2023-02-11T02:38:52;29.65;;;16.50;;
48951;SDS011;34758;42.148;24.744;2023-02-11T02:41:22;31.77;;;16.38;;
48951;SDS011;34758;42.148;24.744;2023-02-11T02:43:51;29.42;;;15.88;;
48951;SDS011;34758;42.148;24.744;2023-02-11T02:46:21;30.25;;;15.35;;
48951;SDS011;34758;42.148;24.744;2023-02-11T02:48:51;28.55;;;15.25;;
48951;SDS011;34758;42.148;24.744;2023-02-11T02:51:24;25.08;;;13.32;;
48951;SDS011;34758;42.148;24.744;2023-02-11T02:54:02;26.95;;;13.68;;
48951;SDS011;34758;42.148;24.744;2023-02-11T02:56:46;28.00;;;14.65;;
48951;SDS011;34758;42.148;24.744;2023-02-11T02:59:21;31.02;;;15.18;;
48951;SDS011;34758;42.148;24.744;2023-02-11T03:01:56;28.65;;;15.23;;
48951;SDS011;34758;42.148;24.744;2023-02-11T03:04:30;29.67;;;14.73;;
48951;SDS011;34758;42.148;24.744;2023-02-11T03:07:02;26.05;;;13.48;;
48951;SDS011;34758;42.148;24.744;2023-02-11T03:09:32;25.52;;;13.73;;
48951;SDS011;34758;42.148;24.744;2023-02-11T03:12:03;27.52;;;14.10;;
48951;SDS011;34758;42.148;24.744;2023-02-11T03:14:32;24.13;;;13.57;;
48951;SDS011;34758;42.148;24.744;2023-02-11T03:17:00;29.83;;;14.18;;
48951;SDS011;34758;42.148;24.744;2023-02-11T03:19:33;25.55;;;13.40;;
48951;SDS011;34758;42.148;24.744;2023-02-11T03:22:05;26.65;;;14.27;;
48951;SDS011;34758;42.148;24.744;2023-02-11T03:24:34;28.55;;;14.07;;
48951;SDS011;34758;42.148;24.744;2023-02-11T03:27:09;32.80;;;15.50;;
48951;SDS011;34758;42.148;24.744;2023-02-11T03:29:42;31.95;;;15.30;;
48951;SDS011;34758;42.148;24.744;2023-02-11T03:32:16;29.08;;;14.85;;
48951;SDS011;34758;42.148;24.744;2023-02-11T03:34:48;27.73;;;15.18;;
48951;SDS011;34758;42.148;24.744;2023-02-11T03:37:21;31.63;;;17.05;;
48951;SDS011;34758;42.148;24.744;2023-02-11T03:39:53;27.85;;;13.40;;
48951;SDS011;34758;42.148;24.744;2023-02-11T03:42:22;32.67;;;17.08;;
48951;SDS011;34758;42.148;24.744;2023-02-11T03:44:56;32.97;;;16.45;;
48951;SDS011;34758;42.148;24.744;2023-02-11T03:47:25;30.85;;;16.65;;
48951;SDS011;34758;42.148;24.744;2023-02-11T03:49:55;32.65;;;17.50;;
48951;SDS011;34758;42.148;24.744;2023-02-11T03:52:23;30.13;;;15.98;;
48951;SDS011;34758;42.148;24.744;2023-02-11T03:54:52;31.23;;;16.27;;
48951;SDS011;34758;42.148;24.744;2023-02-11T03:57:21;31.83;;;17.85;;
48951;SDS011;34758;42.148;24.744;2023-02-11T03:59:52;30.52;;;16.90;;
48951;SDS011;34758;42.148;24.744;2023-02-11T04:02:24;27.67;;;15.98;;
48951;SDS011;34758;42.148;24.744;2023-02-11T04:04:55;32.83;;;16.20;;
48951;SDS011;34758;42.148;24.744;2023-02-11T04:07:22;29.63;;;16.75;;
48951;SDS011;34758;42.148;24.744;2023-02-11T04:09:49;29.33;;;15.50;;
48951;SDS011;34758;42.148;24.744;2023-02-11T04:12:16;32.28;;;16.85;;
48951;SDS011;34758;42.148;24.744;2023-02-11T04:14:43;29.30;;;16.17;;
48951;SDS011;34758;42.148;24.744;2023-02-11T04:17:13;24.42;;;15.40;;
48951;SDS011;34758;42.148;24.744;2023-02-11T04:19:41;29.83;;;16.45;;
48951;SDS011;34758;42.148;24.744;2023-02-11T04:22:10;33.90;;;18.77;;
48951;SDS011;34758;42.148;24.744;2023-02-11T04:24:37;35.35;;;17.77;;
48951;SDS011;34758;42.148;24.744;2023-02-11T04:27:06;35.90;;;19.38;;
48951;SDS011;34758;42.148;24.744;2023-02-11T04:29:35;36.65;;;19.90;;
48951;SDS011;34758;42.148;24.744;2023-02-11T04:32:02;37.92;;;20.52;;
48951;SDS011;34758;42.148;24.744;2023-02-11T04:34:30;34.92;;;19.88;;
48951;SDS011;34758;42.148;24.744;2023-02-11T04:36:57;38.85;;;20.20;;
48951;SDS011;34758;42.148;24.744;2023-02-11T04:39:25;36.03;;;20.70;;
48951;SDS011;34758;42.148;24.744;2023-02-11T04:41:52;45.47;;;22.15;;
48951;SDS011;34758;42.148;24.744;2023-02-11T04:44:19;39.35;;;21.63;;
48951;SDS011;34758;42.148;24.744;2023-02-11T04:46:46;40.05;;;20.83;;
48951;SDS011;34758;42.148;24.744;2023-02-11T04:49:13;35.72;;;17.70;;
48951;SDS011;34758;42.148;24.744;2023-02-11T04:51:41;35.75;;;19.05;;
48951;SDS011;34758;42.148;24.744;2023-02-11T04:54:09;33.33;;;17.00;;
48951;SDS011;34758;42.148;24.744;2023-02-11T04:56:37;33.20;;;17.73;;
48951;SDS011;34758;42.148;24.744;2023-02-11T04:59:05;32.60;;;16.50;;
48951;SDS011;34758;42.148;24.744;2023-02-11T05:01:32;28.35;;;16.13;;
48951;SDS011;34758;42.148;24.744;2023-02-11T05:03:59;29.55;;;16.48;;
48951;SDS011;34758;42.148;24.744;2023-02-11T05:06:26;35.28;;;17.63;;
48951;SDS011;34758;42.148;24.744;2023-02-11T05:08:55;28.90;;;16.80;;
48951;SDS011;34758;42.148;24.744;2023-02-11T05:11:22;31.83;;;16.10;;
48951;SDS011;34758;42.148;24.744;2023-02-11T05:13:53;35.03;;;16.30;;
48951;SDS011;34758;42.148;24.744;2023-02-11T05:16:20;38.65;;;18.63;;
48951;SDS011;34758;42.148;24.744;2023-02-11T05:18:51;37.85;;;17.67;;
48951;SDS011;34758;42.148;24.744;2023-02-11T05:21:19;37.65;;;16.98;;
48951;SDS011;34758;42.148;24.744;2023-02-11T05:23:48;33.33;;;16.80;;
48951;SDS011;34758;42.148;24.744;2023-02-11T05:26:15;34.63;;;18.98;;
48951;SDS011;34758;42.148;24.744;2023-02-11T05:28:43;30.42;;;16.70;;
48951;SDS011;34758;42.148;24.744;2023-02-11T05:31:11;33.50;;;17.48;;
48951;SDS011;34758;42.148;24.744;2023-02-11T05:33:39;31.92;;;17.80;;
48951;SDS011;34758;42.148;24.744;2023-02-11T05:36:09;30.58;;;15.43;;
48951;SDS011;34758;42.148;24.744;2023-02-11T05:38:37;39.30;;;19.63;;
48951;SDS011;34758;42.148;24.744;2023-02-11T05:41:05;35.92;;;20.02;;
48951;SDS011;34758;42.148;24.744;2023-02-11T05:43:33;33.45;;;17.50;;
48951;SDS011;34758;42.148;24.744;2023-02-11T05:46:01;33.65;;;18.38;;
48951;SDS011;34758;42.148;24.744;2023-02-11T05:48:29;37.28;;;20.15;;
48951;SDS011;34758;42.148;24.744;2023-02-11T05:50:56;37.28;;;18.98;;
48951;SDS011;34758;42.148;24.744;2023-02-11T05:53:26;35.30;;;16.95;;
48951;SDS011;34758;42.148;24.744;2023-02-11T05:55:53;34.60;;;17.40;;
48951;SDS011;34758;42.148;24.744;2023-02-11T05:58:20;30.77;;;16.75;;
48951;SDS011;34758;42.148;24.744;2023-02-11T06:00:47;32.05;;;15.95;;
48951;SDS011;34758;42.148;24.744;2023-02-11T06:03:14;31.95;;;16.23;;
48951;SDS011;34758;42.148;24.744;2023-02-11T06:05:44;30.70;;;16.45;;
48951;SDS011;34758;42.148;24.744;2023-02-11T06:08:13;29.30;;;16.85;;
48951;SDS011;34758;42.148;24.744;2023-02-11T06:10:43;29.15;;;14.57;;
48951;SDS011;34758;42.148;24.744;2023-02-11T06:13:12;26.65;;;13.07;;
48951;SDS011;34758;42.148;24.744;2023-02-11T06:15:39;34.08;;;16.65;;
48951;SDS011;34758;42.148;24.744;2023-02-11T06:18:06;36.55;;;15.20;;
48951;SDS011;34758;42.148;24.744;2023-02-11T06:20:33;29.10;;;16.05;;
48951;SDS011;34758;42.148;24.744;2023-02-11T06:23:06;36.95;;;16.95;;
48951;SDS011;34758;42.148;24.744;2023-02-11T06:25:33;29.80;;;15.85;;
48951;SDS011;34758;42.148;24.744;2023-02-11T06:27:59;28.25;;;15.48;;
48951;SDS011;34758;42.148;24.744;2023-02-11T06:30:27;23.65;;;12.90;;
48951;SDS011;34758;42.148;24.744;2023-02-11T06:32:56;25.17;;;13.15;;
48951;SDS011;34758;42.148;24.744;2023-02-11T06:35:22;31.38;;;14.00;;
48951;SDS011;34758;42.148;24.744;2023-02-11T06:37:49;30.52;;;13.90;;
48951;SDS011;34758;42.148;24.744;2023-02-11T06:40:22;23.95;;;12.82;;
48951;SDS011;34758;42.148;24.744;2023-02-11T06:42:49;31.83;;;14.20;;
48951;SDS011;34758;42.148;24.744;2023-02-11T06:45:16;28.70;;;14.32;;
48951;SDS011;34758;42.148;24.744;2023-02-11T06:47:47;30.45;;;15.30;;
48951;SDS011;34758;42.148;24.744;2023-02-11T06:50:17;31.52;;;16.80;;
48951;SDS011;34758;42.148;24.744;2023-02-11T06:52:47;26.25;;;14.70;;
48951;SDS011;34758;42.148;24.744;2023-02-11T06:55:18;23.35;;;11.43;;
48951;SDS011;34758;42.148;24.744;2023-02-11T06:57:45;26.77;;;12.27;;
48951;SDS011;34758;42.148;24.744;2023-02-11T07:02:44;24.65;;;11.95;;
48951;SDS011;34758;42.148;24.744;2023-02-11T07:05:12;22.90;;;11.32;;
48951;SDS011;34758;42.148;24.744;2023-02-11T07:07:42;23.15;;;12.88;;
48951;SDS011;34758;42.148;24.744;2023-02-11T07:10:11;24.67;;;12.63;;
48951;SDS011;34758;42.148;24.744;2023-02-11T07:12:41;25.67;;;12.18;;
48951;SDS011;34758;42.148;24.744;2023-02-11T07:15:08;21.90;;;11.52;;
48951;SDS011;34758;42.148;24.744;2023-02-11T07:17:35;24.05;;;12.43;;
48951;SDS011;34758;42.148;24.744;2023-02-11T07:20:03;22.20;;;11.82;;
48951;SDS011;34758;42.148;24.744;2023-02-11T07:22:32;22.35;;;12.93;;
48951;SDS011;34758;42.148;24.744;2023-02-11T07:25:00;25.75;;;13.02;;
48951;SDS011;34758;42.148;24.744;2023-02-11T07:27:29;28.30;;;12.60;;
48951;SDS011;34758;42.148;24.744;2023-02-11T07:29:58;26.13;;;12.60;;
48951;SDS011;34758;42.148;24.744;2023-02-11T07:32:25;26.23;;;12.27;;
48951;SDS011;34758;42.148;24.744;2023-02-11T07:34:52;24.20;;;13.77;;
48951;SDS011;34758;42.148;24.744;2023-02-11T07:37:19;22.88;;;13.57;;
48951;SDS011;34758;42.148;24.744;2023-02-11T07:39:48;24.80;;;12.85;;
48951;SDS011;34758;42.148;24.744;2023-02-11T07:42:15;26.30;;;14.52;;
48951;SDS011;34758;42.148;24.744;2023-02-11T07:44:42;22.90;;;12.98;;
48951;SDS011;34758;42.148;24.744;2023-02-11T07:47:10;21.65;;;10.70;;
48951;SDS011;34758;42.148;24.744;2023-02-11T07:49:37;23.83;;;12.68;;
48951;SDS011;34758;42.148;24.744;2023-02-11T07:52:04;22.10;;;12.23;;
48951;SDS011;34758;42.148;24.744;2023-02-11T07:54:32;28.27;;;13.10;;
48951;SDS011;34758;42.148;24.744;2023-02-11T07:57:00;23.52;;;11.52;;
48951;SDS011;34758;42.148;24.744;2023-02-11T07:59:30;53.13;;;34.55;;
48951;SDS011;34758;42.148;24.744;2023-02-11T08:01:57;95.07;;;49.33;;
48951;SDS011;34758;42.148;24.744;2023-02-11T08:04:25;23.58;;;14.27;;
48951;SDS011;34758;42.148;24.744;2023-02-11T08:07:08;21.90;;;13.02;;
48951;SDS011;34758;42.148;24.744;2023-02-11T08:09:39;25.10;;;13.45;;
48951;SDS011;34758;42.148;24.744;2023-02-11T08:12:08;27.25;;;15.18;;
48951;SDS011;34758;42.148;24.744;2023-02-11T08:14:36;25.63;;;14.40;;
48951;SDS011;34758;42.148;24.744;2023-02-11T08:17:03;24.70;;;14.10;;
48951;SDS011;34758;42.148;24.744;2023-02-11T08:22:13;26.92;;;14.65;;
48951;SDS011;34758;42.148;24.744;2023-02-11T08:24:47;24.92;;;13.70;;
48951;SDS011;34758;42.148;24.744;2023-02-11T08:27:15;24.70;;;13.65;;
48951;SDS011;34758;42.148;24.744;2023-02-11T08:29:42;23.48;;;14.13;;
48951;SDS011;34758;42.148;24.744;2023-02-11T08:32:12;28.15;;;13.98;;
48951;SDS011;34758;42.148;24.744;2023-02-11T08:34:39;27.02;;;14.27;;
48951;SDS011;34758;42.148;24.744;2023-02-11T08:37:08;22.75;;;12.85;;
48951;SDS011;34758;42.148;24.744;2023-02-11T08:39:42;26.45;;;14.85;;
48951;SDS011;34758;42.148;24.744;2023-02-11T08:42:11;21.30;;;13.15;;
48951;SDS011;34758;42.148;24.744;2023-02-11T08:44:50;25.95;;;15.65;;
48951;SDS011;34758;42.148;24.744;2023-02-11T08:47:17;22.73;;;13.23;;
48951;SDS011;34758;42.148;24.744;2023-02-11T08:49:44;24.00;;;14.07;;
48951;SDS011;34758;42.148;24.744;2023-02-11T08:52:12;23.63;;;13.25;;
48951;SDS011;34758;42.148;24.744;2023-02-11T08:54:39;24.23;;;15.52;;
48951;SDS011;34758;42.148;24.744;2023-02-11T08:57:07;21.55;;;14.07;;
48951;SDS011;34758;42.148;24.744;2023-02-11T08:59:34;15.43;;;9.07;;
48951;SDS011;34758;42.148;24.744;2023-02-11T09:02:01;19.67;;;11.50;;
48951;SDS011;34758;42.148;24.744;2023-02-11T09:04:29;26.23;;;18.02;;
48951;SDS011;34758;42.148;24.744;2023-02-11T09:06:56;22.92;;;12.63;;
48951;SDS011;34758;42.148;24.744;2023-02-11T09:09:25;21.80;;;13.05;;
48951;SDS011;34758;42.148;24.744;2023-02-11T09:11:52;19.50;;;12.40;;
48951;SDS011;34758;42.148;24.744;2023-02-11T09:14:25;21.67;;;12.43;;
48951;SDS011;34758;42.148;24.744;2023-02-11T09:16:52;21.98;;;12.23;;
48951;SDS011;34758;42.148;24.744;2023-02-11T09:19:22;21.42;;;12.73;;
48951;SDS011;34758;42.148;24.744;2023-02-11T09:21:49;22.73;;;13.93;;
48951;SDS011;34758;42.148;24.744;2023-02-11T09:24:16;19.58;;;11.77;;
48951;SDS011;34758;42.148;24.744;2023-02-11T09:26:46;20.52;;;12.25;;
48951;SDS011;34758;42.148;24.744;2023-02-11T09:29:18;20.85;;;12.27;;
48951;SDS011;34758;42.148;24.744;2023-02-11T09:31:45;18.83;;;11.65;;
48951;SDS011;34758;42.148;24.744;2023-02-11T09:34:14;23.05;;;13.95;;
48951;SDS011;34758;42.148;24.744;2023-02-11T09:36:41;22.98;;;13.35;;
48951;SDS011;34758;42.148;24.744;2023-02-11T09:39:10;22.65;;;13.07;;
48951;SDS011;34758;42.148;24.744;2023-02-11T09:41:52;21.48;;;12.60;;
48951;SDS011;34758;42.148;24.744;2023-02-11T09:44:30;18.40;;;11.63;;
48951;SDS011;34758;42.148;24.744;2023-02-11T09:47:00;21.38;;;12.68;;
48951;SDS011;34758;42.148;24.744;2023-02-11T09:49:33;21.98;;;13.13;;
48951;SDS011;34758;42.148;24.744;2023-02-11T09:52:09;18.23;;;10.48;;
48951;SDS011;34758;42.148;24.744;2023-02-11T09:54:44;16.67;;;10.88;;
48951;SDS011;34758;42.148;24.744;2023-02-11T09:57:23;21.00;;;13.45;;
48951;SDS011;34758;42.148;24.744;2023-02-11T09:59:53;21.88;;;13.15;;
48951;SDS011;34758;42.148;24.744;2023-02-11T10:02:22;21.23;;;13.68;;
48951;SDS011;34758;42.148;24.744;2023-02-11T10:05:01;22.95;;;12.15;;
48951;SDS011;34758;42.148;24.744;2023-02-11T10:07:39;23.20;;;13.20;;
48951;SDS011;34758;42.148;24.744;2023-02-11T10:10:12;19.80;;;13.17;;
48951;SDS011;34758;42.148;24.744;2023-02-11T10:12:49;18.45;;;12.13;;
48951;SDS011;34758;42.148;24.744;2023-02-11T10:15:26;23.70;;;13.63;;
48951;SDS011;34758;42.148;24.744;2023-02-11T10:21:05;18.60;;;11.25;;
48951;SDS011;34758;42.148;24.744;2023-02-11T10:23:40;17.67;;;12.43;;
48951;SDS011;34758;42.148;24.744;2023-02-11T10:26:15;21.30;;;12.88;;
48951;SDS011;34758;42.148;24.744;2023-02-11T10:31:12;18.15;;;11.35;;
48951;SDS011;34758;42.148;24.744;2023-02-11T10:33:42;20.08;;;9.93;;
48951;SDS011;34758;42.148;24.744;2023-02-11T10:36:11;17.33;;;11.50;;
48951;SDS011;34758;42.148;24.744;2023-02-11T10:38:40;14.95;;;9.98;;
48951;SDS011;34758;42.148;24.744;2023-02-11T10:41:08;16.65;;;11.20;;
48951;SDS011;34758;42.148;24.744;2023-02-11T10:43:36;14.88;;;10.30;;
48951;SDS011;34758;42.148;24.744;2023-02-11T10:46:04;16.95;;;10.93;;
48951;SDS011;34758;42.148;24.744;2023-02-11T10:48:37;14.70;;;10.00;;
48951;SDS011;34758;42.148;24.744;2023-02-11T10:51:07;17.85;;;9.73;;
48951;SDS011;34758;42.148;24.744;2023-02-11T10:53:45;20.08;;;11.05;;
48951;SDS011;34758;42.148;24.744;2023-02-11T10:56:13;17.88;;;10.95;;
48951;SDS011;34758;42.148;24.744;2023-02-11T10:58:53;15.52;;;11.07;;
48951;SDS011;34758;42.148;24.744;2023-02-11T11:01:23;17.02;;;10.02;;
48951;SDS011;34758;42.148;24.744;2023-02-11T11:04:04;19.88;;;12.15;;
48951;SDS011;34758;42.148;24.744;2023-02-11T11:06:31;15.18;;;9.93;;
48951;SDS011;34758;42.148;24.744;2023-02-11T11:08:59;15.70;;;10.77;;
48951;SDS011;34758;42.148;24.744;2023-02-11T11:11:26;14.10;;;9.88;;
48951;SDS011;34758;42.148;24.744;2023-02-11T11:13:54;18.70;;;11.40;;
48951;SDS011;34758;42.148;24.744;2023-02-11T11:16:24;20.33;;;10.85;;
48951;SDS011;34758;42.148;24.744;2023-02-11T11:18:53;14.43;;;9.02;;
48951;SDS011;34758;42.148;24.744;2023-02-11T11:21:43;15.82;;;10.18;;
48951;SDS011;34758;42.148;24.744;2023-02-11T11:24:14;13.90;;;9.50;;
48951;SDS011;34758;42.148;24.744;2023-02-11T11:26:44;13.25;;;9.02;;
48951;SDS011;34758;42.148;24.744;2023-02-11T11:29:14;15.98;;;10.55;;
48951;SDS011;34758;42.148;24.744;2023-02-11T11:31:49;16.58;;;10.05;;
48951;SDS011;34758;42.148;24.744;2023-02-11T11:34:20;13.63;;;9.70;;
48951;SDS011;34758;42.148;24.744;2023-02-11T11:36:49;14.38;;;9.15;;
48951;SDS011;34758;42.148;24.744;2023-02-11T11:39:17;18.50;;;11.02;;
48951;SDS011;34758;42.148;24.744;2023-02-11T11:41:50;16.98;;;13.45;;
48951;SDS011;34758;42.148;24.744;2023-02-11T11:44:30;13.52;;;10.98;;
48951;SDS011;34758;42.148;24.744;2023-02-11T11:47:11;13.25;;;8.65;;
48951;SDS011;34758;42.148;24.744;2023-02-11T11:49:47;13.95;;;7.70;;
48951;SDS011;34758;42.148;24.744;2023-02-11T11:52:19;19.25;;;15.43;;
48951;SDS011;34758;42.148;24.744;2023-02-11T11:54:57;22.80;;;16.33;;
48951;SDS011;34758;42.148;24.744;2023-02-11T11:57:26;13.48;;;8.70;;
48951;SDS011;34758;42.148;24.744;2023-02-11T11:59:54;30.08;;;20.65;;
48951;SDS011;34758;42.148;24.744;2023-02-11T12:05:16;13.50;;;9.05;;
48951;SDS011;34758;42.148;24.744;2023-02-11T12:07:49;33.20;;;20.95;;
48951;SDS011;34758;42.148;24.744;2023-02-11T12:13:15;62.95;;;33.55;;
48951;SDS011;34758;42.148;24.744;2023-02-11T12:15:50;41.85;;;24.83;;
48951;SDS011;34758;42.148;24.744;2023-02-11T12:18:32;15.27;;;10.50;;
48951;SDS011;34758;42.148;24.744;2023-02-11T12:26:48;12.35;;;9.18;;
48951;SDS011;34758;42.148;24.744;2023-02-11T12:29:22;13.35;;;8.80;;
48951;SDS011;34758;42.148;24.744;2023-02-11T12:31:57;15.57;;;9.63;;
48951;SDS011;34758;42.148;24.744;2023-02-11T12:34:41;12.98;;;9.10;;
48951;SDS011;34758;42.148;24.744;2023-02-11T12:37:23;12.82;;;8.70;;
48951;SDS011;34758;42.148;24.744;2023-02-11T12:40:01;14.32;;;8.40;;
48951;SDS011;34758;42.148;24.744;2023-02-11T12:42:32;14.77;;;8.30;;
48951;SDS011;34758;42.148;24.744;2023-02-11T12:45:25;13.63;;;7.55;;
48951;SDS011;34758;42.148;24.744;2023-02-11T12:48:09;13.05;;;8.45;;
48951;SDS011;34758;42.148;24.744;2023-02-11T12:50:51;12.25;;;8.63;;
48951;SDS011;34758;42.148;24.744;2023-02-11T12:56:17;12.55;;;8.43;;
48951;SDS011;34758;42.148;24.744;2023-02-11T12:58:47;13.80;;;7.40;;
48951;SDS011;34758;42.148;24.744;2023-02-11T13:01:18;13.93;;;8.93;;
48951;SDS011;34758;42.148;24.744;2023-02-11T13:03:49;11.48;;;7.55;;
48951;SDS011;34758;42.148;24.744;2023-02-11T13:06:26;14.15;;;8.18;;
48951;SDS011;34758;42.148;24.744;2023-02-11T13:08:56;10.85;;;7.40;;
48951;SDS011;34758;42.148;24.744;2023-02-11T13:11:29;11.98;;;7.72;;
48951;SDS011;34758;42.148;24.744;2023-02-11T13:14:01;12.85;;;7.70;;
48951;SDS011;34758;42.148;24.744;2023-02-11T13:16:32;10.73;;;7.10;;
48951;SDS011;34758;42.148;24.744;2023-02-11T13:19:03;11.40;;;7.15;;
48951;SDS011;34758;42.148;24.744;2023-02-11T13:21:39;14.07;;;7.50;;
48951;SDS011;34758;42.148;24.744;2023-02-11T13:24:17;12.43;;;7.72;;
48951;SDS011;34758;42.148;24.744;2023-02-11T13:26:50;12.43;;;7.45;;
48951;SDS011;34758;42.148;24.744;2023-02-11T13:29:25;12.43;;;8.07;;
48951;SDS011;34758;42.148;24.744;2023-02-11T13:31:56;12.93;;;8.73;;
48951;SDS011;34758;42.148;24.744;2023-02-11T13:37:22;16.52;;;8.32;;
48951;SDS011;34758;42.148;24.744;2023-02-11T13:40:00;13.38;;;8.23;;
48951;SDS011;34758;42.148;24.744;2023-02-11T13:42:28;12.68;;;8.43;;
48951;SDS011;34758;42.148;24.744;2023-02-11T13:44:55;15.80;;;9.38;;
48951;SDS011;34758;42.148;24.744;2023-02-11T13:47:27;12.93;;;8.57;;
48951;SDS011;34758;42.148;24.744;2023-02-11T13:49:56;12.73;;;8.35;;
48951;SDS011;34758;42.148;24.744;2023-02-11T13:54:58;14.95;;;8.55;;
48951;SDS011;34758;42.148;24.744;2023-02-11T13:57:41;14.13;;;8.60;;
48951;SDS011;34758;42.148;24.744;2023-02-11T14:03:29;12.73;;;7.50;;
48951;SDS011;34758;42.148;24.744;2023-02-11T14:06:21;12.70;;;8.48;;
48951;SDS011;34758;42.148;24.744;2023-02-11T14:15:00;12.32;;;8.30;;
48951;SDS011;34758;42.148;24.744;2023-02-11T14:17:43;15.25;;;8.55;;
48951;SDS011;34758;42.148;24.744;2023-02-11T14:22:59;14.73;;;8.68;;
48951;SDS011;34758;42.148;24.744;2023-02-11T14:25:31;10.85;;;7.72;;
48951;SDS011;34758;42.148;24.744;2023-02-11T14:28:00;13.98;;;8.85;;
48951;SDS011;34758;42.148;24.744;2023-02-11T14:30:42;12.90;;;8.60;;
48951;SDS011;34758;42.148;24.744;2023-02-11T14:36:28;16.13;;;9.38;;
48951;SDS011;34758;42.148;24.744;2023-02-11T14:39:25;13.68;;;9.23;;
48951;SDS011;34758;42.148;24.744;2023-02-11T14:44:31;13.88;;;7.68;;
48951;SDS011;34758;42.148;24.744;2023-02-11T14:47:01;17.52;;;8.93;;
48951;SDS011;34758;42.148;24.744;2023-02-11T14:49:28;16.13;;;11.10;;
48951;SDS011;34758;42.148;24.744;2023-02-11T14:51:58;16.20;;;10.05;;
48951;SDS011;34758;42.148;24.744;2023-02-11T14:54:32;18.55;;;10.07;;
48951;SDS011;34758;42.148;24.744;2023-02-11T14:57:07;20.02;;;11.32;;
48951;SDS011;34758;42.148;24.744;2023-02-11T14:59:35;23.10;;;11.93;;
48951;SDS011;34758;42.148;24.744;2023-02-11T15:02:12;16.67;;;9.63;;
48951;SDS011;34758;42.148;24.744;2023-02-11T15:04:46;16.98;;;10.48;;
48951;SDS011;34758;42.148;24.744;2023-02-11T15:07:16;18.05;;;10.55;;
48951;SDS011;34758;42.148;24.744;2023-02-11T15:09:45;17.50;;;11.02;;
48951;SDS011;34758;42.148;24.744;2023-02-11T15:12:16;26.08;;;14.25;;
48951;SDS011;34758;42.148;24.744;2023-02-11T15:14:48;21.67;;;13.80;;
48951;SDS011;34758;42.148;24.744;2023-02-11T15:17:18;20.75;;;11.88;;
48951;SDS011;34758;42.148;24.744;2023-02-11T15:19:49;50.10;;;32.90;;
48951;SDS011;34758;42.148;24.744;2023-02-11T15:22:18;56.35;;;36.92;;
48951;SDS011;34758;42.148;24.744;2023-02-11T15:24:56;31.70;;;19.35;;
48951;SDS011;34758;42.148;24.744;2023-02-11T15:27:25;25.13;;;16.02;;
48951;SDS011;34758;42.148;24.744;2023-02-11T15:29:52;35.03;;;19.95;;